UAL138 KMCO-KBDL
Flight info
| Callsign | UAL138 |
|---|---|
| Flight time | 2h 23m |
| Altitude | 29000 |
| Route | FATHE4 VIYAP Q87 GEARS BBOBO Q22 RBV Q419 DPK DPK3 |
| Aircraft | B738/M-SDE2E3FGHIRWXY/LB1 |
Departure
| Time | 2026-04-25 18:39 |
|---|---|
| Airport | Orlando International Airport (KMCO) |
Arrival
| Time | 2026-04-25 21:03 |
|---|---|
| Airport | Bradley International Airport (KBDL) |
| Time | Latitude | Longitude | Altitude | Speed | Heading |
|---|---|---|---|---|---|
| 2026-04-25 17:51 | 28.42676 | -81.31409 | 101 ft | 0 kts | 333° |
| 2026-04-25 18:19 | 28.42667 | -81.31404 | 99 ft | 2 kts | 333° |
| 2026-04-25 18:19 | 28.42652 | -81.31395 | 100 ft | 2 kts | 333° |
| 2026-04-25 18:19 | 28.42638 | -81.31387 | 99 ft | 2 kts | 333° |
| 2026-04-25 18:19 | 28.42624 | -81.31377 | 99 ft | 2 kts | 300° |
| 2026-04-25 18:20 | 28.42621 | -81.31364 | 98 ft | 1 kts | 246° |
| 2026-04-25 18:20 | 28.42622 | -81.31360 | 99 ft | 0 kts | 242° |
| 2026-04-25 18:24 | 28.42622 | -81.31361 | 101 ft | 0 kts | 245° |
| 2026-04-25 18:24 | 28.42621 | -81.31365 | 101 ft | 1 kts | 252° |
| 2026-04-25 18:24 | 28.42614 | -81.31382 | 99 ft | 3 kts | 237° |
| 2026-04-25 18:25 | 28.42595 | -81.31397 | 99 ft | 3 kts | 200° |
| 2026-04-25 18:25 | 28.42586 | -81.31398 | 101 ft | 0 kts | 184° |
| 2026-04-25 18:26 | 28.42591 | -81.31397 | 100 ft | 2 kts | 158° |
| 2026-04-25 18:26 | 28.42593 | -81.31398 | 100 ft | 0 kts | 149° |
| 2026-04-25 18:28 | 28.42601 | -81.31411 | 100 ft | 2 kts | 76° |
| 2026-04-25 18:28 | 28.42594 | -81.31428 | 101 ft | 2 kts | 31° |
| 2026-04-25 18:29 | 28.42564 | -81.31425 | 101 ft | 2 kts | 302° |
| 2026-04-25 18:29 | 28.42559 | -81.31408 | 101 ft | 2 kts | 257° |
| 2026-04-25 18:30 | 28.42588 | -81.31383 | 100 ft | 0 kts | 167° |
| 2026-04-25 18:30 | 28.42548 | -81.31370 | 100 ft | 10 kts | 160° |
| 2026-04-25 18:30 | 28.42463 | -81.31320 | 94 ft | 18 kts | 141° |
| 2026-04-25 18:31 | 28.42391 | -81.31283 | 94 ft | 2 kts | 173° |
| 2026-04-25 18:31 | 28.42386 | -81.31282 | 95 ft | 1 kts | 170° |
| 2026-04-25 18:31 | 28.42367 | -81.31275 | 96 ft | 3 kts | 156° |
| 2026-04-25 18:31 | 28.42358 | -81.31269 | 95 ft | 4 kts | 148° |
| 2026-04-25 18:32 | 28.42341 | -81.31204 | 94 ft | 11 kts | 94° |
| 2026-04-25 18:32 | 28.42328 | -81.31110 | 94 ft | 13 kts | 109° |
| 2026-04-25 18:32 | 28.42321 | -81.31001 | 92 ft | 15 kts | 94° |
| 2026-04-25 18:32 | 28.42323 | -81.30874 | 92 ft | 17 kts | 85° |
| 2026-04-25 18:33 | 28.42331 | -81.30769 | 105 ft | 8 kts | 83° |
| 2026-04-25 18:33 | 28.42336 | -81.30696 | 105 ft | 11 kts | 90° |
| 2026-04-25 18:33 | 28.42343 | -81.30600 | 105 ft | 14 kts | 86° |
| 2026-04-25 18:33 | 28.42352 | -81.30479 | 104 ft | 17 kts | 87° |
| 2026-04-25 18:34 | 28.42359 | -81.30312 | 99 ft | 22 kts | 85° |
| 2026-04-25 18:34 | 28.42365 | -81.30135 | 100 ft | 22 kts | 87° |
| 2026-04-25 18:34 | 28.42366 | -81.29952 | 98 ft | 24 kts | 91° |
| 2026-04-25 18:34 | 28.42368 | -81.29760 | 96 ft | 21 kts | 76° |
| 2026-04-25 18:35 | 28.42484 | -81.29709 | 98 ft | 19 kts | 357° |
| 2026-04-25 18:35 | 28.42613 | -81.29709 | 95 ft | 19 kts | 1° |
| 2026-04-25 18:35 | 28.42743 | -81.29701 | 96 ft | 18 kts | 354° |
| 2026-04-25 18:35 | 28.42868 | -81.29705 | 99 ft | 18 kts | 4° |
| 2026-04-25 18:36 | 28.42994 | -81.29708 | 99 ft | 19 kts | 1° |
| 2026-04-25 18:36 | 28.43135 | -81.29708 | 99 ft | 21 kts | 0° |
| 2026-04-25 18:36 | 28.43278 | -81.29710 | 100 ft | 21 kts | 1° |
| 2026-04-25 18:36 | 28.43423 | -81.29715 | 99 ft | 21 kts | 360° |
| 2026-04-25 18:37 | 28.43548 | -81.29667 | 98 ft | 18 kts | 70° |
| 2026-04-25 18:37 | 28.43528 | -81.29589 | 99 ft | 8 kts | 158° |
| 2026-04-25 18:37 | 28.43511 | -81.29587 | 99 ft | 0 kts | 181° |
| 2026-04-25 18:38 | 28.43411 | -81.29588 | 100 ft | 42 kts | 180° |
| 2026-04-25 18:39 | 28.42889 | -81.29578 | 99 ft | 106 kts | 179° |
| 2026-04-25 18:39 | 28.41980 | -81.29588 | 104 ft | 155 kts | 189° |
| 2026-04-25 18:39 | 28.40884 | -81.29778 | 549 ft | 163 kts | 194° |
| 2026-04-25 18:39 | 28.39716 | -81.29964 | 1034 ft | 173 kts | 182° |
| 2026-04-25 18:40 | 28.38431 | -81.29778 | 1309 ft | 202 kts | 159° |
| 2026-04-25 18:40 | 28.37191 | -81.28871 | 1622 ft | 221 kts | 146° |
| 2026-04-25 18:40 | 28.35923 | -81.27793 | 1953 ft | 233 kts | 146° |
| 2026-04-25 18:40 | 28.34584 | -81.26702 | 2238 ft | 252 kts | 147° |
| 2026-04-25 18:41 | 28.33196 | -81.25383 | 2701 ft | 267 kts | 139° |
| 2026-04-25 18:41 | 28.31869 | -81.23892 | 3495 ft | 267 kts | 136° |
| 2026-04-25 18:41 | 28.30606 | -81.22385 | 4340 ft | 265 kts | 135° |
| 2026-04-25 18:41 | 28.29345 | -81.20828 | 5081 ft | 269 kts | 135° |
| 2026-04-25 18:42 | 28.28052 | -81.19249 | 5733 ft | 277 kts | 136° |
| 2026-04-25 18:42 | 28.27176 | -81.18195 | 6293 ft | 278 kts | 136° |
| 2026-04-25 18:42 | 28.25375 | -81.16052 | 7190 ft | 284 kts | 136° |
| 2026-04-25 18:42 | 28.24002 | -81.14423 | 7850 ft | 288 kts | 136° |
| 2026-04-25 18:43 | 28.22602 | -81.12760 | 8472 ft | 293 kts | 135° |
| 2026-04-25 18:43 | 28.21199 | -81.11054 | 9116 ft | 298 kts | 135° |
| 2026-04-25 18:43 | 28.19777 | -81.09370 | 9808 ft | 300 kts | 136° |
| 2026-04-25 18:43 | 28.18331 | -81.07607 | 10269 ft | 311 kts | 135° |
| 2026-04-25 18:44 | 28.16797 | -81.05768 | 10467 ft | 330 kts | 135° |
| 2026-04-25 18:44 | 28.15207 | -81.03822 | 10903 ft | 340 kts | 135° |
| 2026-04-25 18:44 | 28.13564 | -81.01864 | 11514 ft | 344 kts | 136° |
| 2026-04-25 18:44 | 28.11889 | -80.99858 | 11890 ft | 358 kts | 135° |
| 2026-04-25 18:45 | 28.10131 | -80.97784 | 12194 ft | 371 kts | 135° |
| 2026-04-25 18:45 | 28.08346 | -80.95617 | 12643 ft | 380 kts | 133° |
| 2026-04-25 18:45 | 28.06594 | -80.93373 | 13327 ft | 381 kts | 124° |
| 2026-04-25 18:45 | 28.05537 | -80.90627 | 13836 ft | 386 kts | 99° |
| 2026-04-25 18:46 | 28.05580 | -80.87595 | 14244 ft | 389 kts | 74° |
| 2026-04-25 18:46 | 28.06631 | -80.84791 | 14782 ft | 388 kts | 53° |
| 2026-04-25 18:46 | 28.08542 | -80.82620 | 15032 ft | 394 kts | 31° |
| 2026-04-25 18:46 | 28.11016 | -80.81272 | 15429 ft | 396 kts | 15° |
| 2026-04-25 18:47 | 28.13657 | -80.80588 | 16014 ft | 394 kts | 4° |
| 2026-04-25 18:47 | 28.16389 | -80.80730 | 16385 ft | 396 kts | 345° |
| 2026-04-25 18:47 | 28.18963 | -80.81857 | 16752 ft | 400 kts | 332° |
| 2026-04-25 18:47 | 28.21428 | -80.83349 | 17257 ft | 402 kts | 330° |
| 2026-04-25 18:48 | 28.23913 | -80.84872 | 17593 ft | 409 kts | 330° |
| 2026-04-25 18:48 | 28.26441 | -80.86422 | 17933 ft | 414 kts | 330° |
| 2026-04-25 18:48 | 28.28972 | -80.87980 | 18493 ft | 413 kts | 330° |
| 2026-04-25 18:48 | 28.31509 | -80.89524 | 18904 ft | 416 kts | 331° |
| 2026-04-25 18:49 | 28.34077 | -80.91062 | 19268 ft | 419 kts | 331° |
| 2026-04-25 18:49 | 28.36669 | -80.92606 | 19629 ft | 422 kts | 331° |
| 2026-04-25 18:49 | 28.39284 | -80.94161 | 19989 ft | 425 kts | 332° |
| 2026-04-25 18:49 | 28.41913 | -80.95726 | 20356 ft | 428 kts | 332° |
| 2026-04-25 18:50 | 28.44525 | -80.97284 | 20718 ft | 430 kts | 332° |
| 2026-04-25 18:50 | 28.47187 | -80.98873 | 21074 ft | 433 kts | 332° |
| 2026-04-25 18:50 | 28.49863 | -81.00474 | 21414 ft | 436 kts | 332° |
| 2026-04-25 18:50 | 28.52566 | -81.02091 | 21736 ft | 439 kts | 332° |
| 2026-04-25 18:51 | 28.55280 | -81.03717 | 22050 ft | 442 kts | 332° |
| 2026-04-25 18:51 | 28.57084 | -81.04798 | 22270 ft | 444 kts | 332° |
| 2026-04-25 18:51 | 28.60760 | -81.07002 | 22669 ft | 447 kts | 332° |
| 2026-04-25 18:51 | 28.63510 | -81.08672 | 22965 ft | 450 kts | 329° |
| 2026-04-25 18:52 | 28.66186 | -81.10461 | 23270 ft | 452 kts | 328° |
| 2026-04-25 18:52 | 28.68940 | -81.12214 | 23540 ft | 455 kts | 332° |
| 2026-04-25 18:52 | 28.71821 | -81.13760 | 23801 ft | 457 kts | 335° |
| 2026-04-25 18:52 | 28.74704 | -81.15294 | 24090 ft | 457 kts | 333° |
| 2026-04-25 18:53 | 28.77532 | -81.16961 | 24379 ft | 457 kts | 332° |
| 2026-04-25 18:53 | 28.80334 | -81.18688 | 24634 ft | 458 kts | 332° |
| 2026-04-25 18:53 | 28.83142 | -81.20430 | 24859 ft | 460 kts | 332° |
| 2026-04-25 18:53 | 28.85969 | -81.22171 | 25102 ft | 461 kts | 332° |
| 2026-04-25 18:54 | 28.91612 | -81.25600 | 25608 ft | 463 kts | 332° |
| 2026-04-25 18:54 | 28.94473 | -81.27325 | 25889 ft | 464 kts | 332° |
| 2026-04-25 18:54 | 28.97392 | -81.28948 | 26161 ft | 465 kts | 338° |
| 2026-04-25 18:55 | 29.00473 | -81.30109 | 26501 ft | 464 kts | 345° |
| 2026-04-25 18:55 | 29.03643 | -81.30745 | 26912 ft | 462 kts | 354° |
| 2026-04-25 18:55 | 29.06845 | -81.31028 | 27347 ft | 460 kts | 355° |
| 2026-04-25 18:55 | 29.09984 | -81.31316 | 27736 ft | 458 kts | 355° |
| 2026-04-25 18:56 | 29.13154 | -81.31603 | 28105 ft | 456 kts | 356° |
| 2026-04-25 18:56 | 29.16333 | -81.31798 | 28446 ft | 456 kts | 356° |
| 2026-04-25 18:56 | 29.19507 | -81.31954 | 28806 ft | 454 kts | 357° |
| 2026-04-25 18:56 | 29.22661 | -81.32105 | 28932 ft | 455 kts | 357° |
| 2026-04-25 18:57 | 29.25846 | -81.32270 | 28972 ft | 458 kts | 356° |
| 2026-04-25 18:57 | 29.29041 | -81.32451 | 29159 ft | 460 kts | 356° |
| 2026-04-25 18:57 | 29.32227 | -81.32640 | 29541 ft | 457 kts | 356° |
| 2026-04-25 18:57 | 29.33259 | -81.32702 | 29684 ft | 456 kts | 356° |
| 2026-04-25 18:58 | 29.38536 | -81.33018 | 30365 ft | 451 kts | 357° |
| 2026-04-25 18:58 | 29.44770 | -81.33395 | 30860 ft | 452 kts | 356° |
| 2026-04-25 18:58 | 29.47911 | -81.33589 | 31127 ft | 452 kts | 356° |
| 2026-04-25 18:59 | 29.54175 | -81.33980 | 31682 ft | 450 kts | 356° |
| 2026-04-25 18:59 | 29.60427 | -81.34373 | 32257 ft | 449 kts | 356° |
| 2026-04-25 19:00 | 29.66654 | -81.34820 | 32855 ft | 447 kts | 355° |
| 2026-04-25 19:00 | 29.69766 | -81.35011 | 32953 ft | 449 kts | 355° |
| 2026-04-25 19:01 | 29.79117 | -81.35505 | 32959 ft | 448 kts | 355° |
| 2026-04-25 19:01 | 29.85349 | -81.35845 | 32955 ft | 446 kts | 355° |
| 2026-04-25 19:02 | 29.94613 | -81.36373 | 32965 ft | 445 kts | 355° |
| 2026-04-25 19:03 | 30.01843 | -81.36789 | 32963 ft | 445 kts | 355° |
| 2026-04-25 19:03 | 30.10091 | -81.37266 | 32955 ft | 446 kts | 355° |
| 2026-04-25 19:04 | 30.19393 | -81.37805 | 32937 ft | 448 kts | 355° |
| 2026-04-25 19:05 | 30.31897 | -81.38530 | 32938 ft | 451 kts | 355° |
| 2026-04-25 19:06 | 30.38169 | -81.38893 | 32937 ft | 451 kts | 355° |
| 2026-04-25 19:06 | 30.47557 | -81.39436 | 32936 ft | 452 kts | 355° |
| 2026-04-25 19:07 | 30.56989 | -81.39941 | 32937 ft | 452 kts | 355° |
| 2026-04-25 19:08 | 30.66387 | -81.40438 | 32936 ft | 452 kts | 355° |
| 2026-04-25 19:09 | 30.76880 | -81.41000 | 32936 ft | 452 kts | 355° |
| 2026-04-25 19:10 | 30.88376 | -81.41616 | 32937 ft | 452 kts | 355° |
| 2026-04-25 19:10 | 30.94681 | -81.41955 | 32922 ft | 452 kts | 355° |
| 2026-04-25 19:11 | 30.99914 | -81.42236 | 32924 ft | 452 kts | 355° |
| 2026-04-25 19:11 | 31.06221 | -81.42576 | 32917 ft | 453 kts | 355° |
| 2026-04-25 19:12 | 31.12496 | -81.42915 | 32919 ft | 454 kts | 355° |
| 2026-04-25 19:12 | 31.18814 | -81.43256 | 32914 ft | 454 kts | 355° |
| 2026-04-25 19:13 | 31.25124 | -81.42912 | 32934 ft | 457 kts | 9° |
| 2026-04-25 19:13 | 31.31175 | -81.40532 | 32942 ft | 461 kts | 22° |
| 2026-04-25 19:14 | 31.36962 | -81.37315 | 32930 ft | 463 kts | 23° |
| 2026-04-25 19:14 | 31.42782 | -81.34078 | 32919 ft | 463 kts | 22° |
| 2026-04-25 19:15 | 31.48606 | -81.30892 | 32929 ft | 463 kts | 22° |
| 2026-04-25 19:15 | 31.54455 | -81.27710 | 32912 ft | 464 kts | 22° |
| 2026-04-25 19:16 | 31.60315 | -81.24514 | 32914 ft | 464 kts | 22° |
| 2026-04-25 19:16 | 31.66183 | -81.21307 | 32910 ft | 465 kts | 22° |
| 2026-04-25 19:17 | 31.72016 | -81.18117 | 32895 ft | 465 kts | 22° |
| 2026-04-25 19:17 | 31.77891 | -81.14902 | 32887 ft | 465 kts | 22° |
| 2026-04-25 19:18 | 31.83756 | -81.11685 | 32885 ft | 466 kts | 22° |
| 2026-04-25 19:18 | 31.89643 | -81.08450 | 32870 ft | 466 kts | 22° |
| 2026-04-25 19:19 | 31.95491 | -81.05231 | 32875 ft | 466 kts | 22° |
| 2026-04-25 19:19 | 31.98893 | -81.03358 | 32866 ft | 466 kts | 22° |
| 2026-04-25 19:20 | 32.04768 | -81.00099 | 32874 ft | 466 kts | 23° |
| 2026-04-25 19:20 | 32.10638 | -80.96812 | 32879 ft | 467 kts | 23° |
| 2026-04-25 19:21 | 32.16514 | -80.93515 | 32912 ft | 467 kts | 23° |
| 2026-04-25 19:21 | 32.25296 | -80.88585 | 32917 ft | 468 kts | 23° |
| 2026-04-25 19:22 | 32.31180 | -80.85277 | 32924 ft | 468 kts | 23° |
| 2026-04-25 19:23 | 32.40033 | -80.80291 | 32895 ft | 470 kts | 23° |
| 2026-04-25 19:23 | 32.48857 | -80.75310 | 32901 ft | 470 kts | 23° |
| 2026-04-25 19:24 | 32.54787 | -80.71957 | 32896 ft | 471 kts | 23° |
| 2026-04-25 19:25 | 32.66600 | -80.65259 | 32898 ft | 471 kts | 23° |
| 2026-04-25 19:25 | 32.72517 | -80.61891 | 32892 ft | 472 kts | 23° |
| 2026-04-25 19:26 | 32.78403 | -80.58422 | 32891 ft | 472 kts | 24° |
| 2026-04-25 19:26 | 32.84252 | -80.54928 | 32888 ft | 473 kts | 24° |
| 2026-04-25 19:27 | 32.89183 | -80.51986 | 32894 ft | 473 kts | 24° |
| 2026-04-25 19:27 | 32.96048 | -80.47898 | 32903 ft | 474 kts | 24° |
| 2026-04-25 19:28 | 33.01959 | -80.44376 | 32864 ft | 475 kts | 24° |
| 2026-04-25 19:28 | 33.07833 | -80.40870 | 32860 ft | 474 kts | 24° |
| 2026-04-25 19:29 | 33.13745 | -80.37335 | 32874 ft | 474 kts | 24° |
| 2026-04-25 19:29 | 33.19647 | -80.33801 | 32862 ft | 475 kts | 24° |
| 2026-04-25 19:30 | 33.25553 | -80.30259 | 32869 ft | 475 kts | 24° |
| 2026-04-25 19:30 | 33.31420 | -80.26735 | 32875 ft | 475 kts | 24° |
| 2026-04-25 19:31 | 33.37336 | -80.23176 | 32880 ft | 475 kts | 24° |
| 2026-04-25 19:31 | 33.43248 | -80.19615 | 32875 ft | 475 kts | 24° |
| 2026-04-25 19:32 | 33.49153 | -80.16051 | 32881 ft | 475 kts | 24° |
| 2026-04-25 19:32 | 33.54062 | -80.13084 | 32881 ft | 475 kts | 24° |
| 2026-04-25 19:33 | 33.60980 | -80.08897 | 32880 ft | 476 kts | 24° |
| 2026-04-25 19:33 | 33.66863 | -80.05332 | 32874 ft | 476 kts | 24° |
| 2026-04-25 19:34 | 33.72789 | -80.01736 | 32871 ft | 477 kts | 24° |
| 2026-04-25 19:34 | 33.78720 | -79.98130 | 32865 ft | 477 kts | 24° |
| 2026-04-25 19:35 | 33.84657 | -79.94512 | 32872 ft | 478 kts | 24° |
| 2026-04-25 19:35 | 33.90569 | -79.90905 | 32871 ft | 478 kts | 24° |
| 2026-04-25 19:36 | 33.96513 | -79.87272 | 32865 ft | 479 kts | 24° |
| 2026-04-25 19:36 | 34.02427 | -79.83652 | 32871 ft | 479 kts | 24° |
| 2026-04-25 19:37 | 34.08395 | -79.79991 | 32869 ft | 479 kts | 24° |
| 2026-04-25 19:37 | 34.14339 | -79.76340 | 32871 ft | 479 kts | 24° |
| 2026-04-25 19:38 | 34.20252 | -79.72701 | 32870 ft | 479 kts | 24° |
| 2026-04-25 19:38 | 34.26212 | -79.69020 | 32871 ft | 480 kts | 24° |
| 2026-04-25 19:39 | 34.32162 | -79.65336 | 32871 ft | 480 kts | 24° |
| 2026-04-25 19:39 | 34.38102 | -79.61655 | 32866 ft | 480 kts | 24° |
| 2026-04-25 19:40 | 34.44049 | -79.57970 | 32856 ft | 480 kts | 24° |
| 2026-04-25 19:40 | 34.49952 | -79.54304 | 32857 ft | 480 kts | 24° |
| 2026-04-25 19:41 | 34.55905 | -79.50596 | 32854 ft | 480 kts | 25° |
| 2026-04-25 19:41 | 34.59839 | -79.47988 | 32862 ft | 481 kts | 26° |
| 2026-04-25 19:42 | 34.67627 | -79.42667 | 32868 ft | 482 kts | 26° |
| 2026-04-25 19:42 | 34.73561 | -79.39034 | 32890 ft | 480 kts | 26° |
| 2026-04-25 19:43 | 34.79368 | -79.34972 | 32874 ft | 479 kts | 23° |
| 2026-04-25 19:43 | 34.85224 | -79.31033 | 32882 ft | 482 kts | 29° |
| 2026-04-25 19:44 | 34.90954 | -79.26870 | 32871 ft | 482 kts | 27° |
| 2026-04-25 19:44 | 34.96817 | -79.22847 | 32857 ft | 483 kts | 26° |
| 2026-04-25 19:45 | 35.02722 | -79.18919 | 32831 ft | 483 kts | 25° |
| 2026-04-25 19:45 | 35.08566 | -79.14944 | 32829 ft | 484 kts | 26° |
| 2026-04-25 19:46 | 35.14428 | -79.10885 | 32835 ft | 485 kts | 26° |
| 2026-04-25 19:46 | 35.20327 | -79.06826 | 32833 ft | 485 kts | 26° |
| 2026-04-25 19:47 | 35.26197 | -79.02800 | 32835 ft | 486 kts | 26° |
| 2026-04-25 19:47 | 35.32098 | -78.98747 | 32837 ft | 486 kts | 26° |
| 2026-04-25 19:48 | 35.37993 | -78.94687 | 32847 ft | 486 kts | 26° |
| 2026-04-25 19:48 | 35.43884 | -78.90626 | 32843 ft | 485 kts | 26° |
| 2026-04-25 19:49 | 35.47786 | -78.87929 | 32845 ft | 485 kts | 26° |
| 2026-04-25 19:49 | 35.55624 | -78.82497 | 32850 ft | 485 kts | 26° |
| 2026-04-25 19:50 | 35.64445 | -78.76377 | 32845 ft | 485 kts | 26° |
| 2026-04-25 19:51 | 35.70337 | -78.72296 | 32845 ft | 486 kts | 26° |
| 2026-04-25 19:51 | 35.76195 | -78.68230 | 32848 ft | 486 kts | 26° |
| 2026-04-25 19:52 | 35.82087 | -78.64131 | 32845 ft | 486 kts | 26° |
| 2026-04-25 19:52 | 35.87981 | -78.60022 | 32850 ft | 486 kts | 26° |
| 2026-04-25 19:53 | 35.93834 | -78.55934 | 32843 ft | 486 kts | 26° |
| 2026-04-25 19:53 | 35.99720 | -78.51816 | 32847 ft | 486 kts | 26° |
| 2026-04-25 19:54 | 36.05605 | -78.47693 | 32849 ft | 486 kts | 26° |
| 2026-04-25 19:54 | 36.11501 | -78.43555 | 32853 ft | 486 kts | 26° |
| 2026-04-25 19:55 | 36.17388 | -78.39415 | 32847 ft | 487 kts | 26° |
| 2026-04-25 19:55 | 36.23249 | -78.35287 | 32829 ft | 487 kts | 26° |
| 2026-04-25 19:56 | 36.29145 | -78.31124 | 32833 ft | 488 kts | 26° |
| 2026-04-25 19:56 | 36.35050 | -78.26951 | 32827 ft | 488 kts | 26° |
| 2026-04-25 19:57 | 36.40586 | -78.22002 | 32835 ft | 494 kts | 40° |
| 2026-04-25 19:57 | 36.45548 | -78.16078 | 32843 ft | 495 kts | 41° |
| 2026-04-25 19:58 | 36.50467 | -78.10139 | 32854 ft | 495 kts | 41° |
| 2026-04-25 19:58 | 36.55446 | -78.04221 | 32868 ft | 495 kts | 40° |
| 2026-04-25 19:59 | 36.59605 | -77.99310 | 32870 ft | 495 kts | 40° |
| 2026-04-25 19:59 | 36.64606 | -77.93396 | 32874 ft | 495 kts | 40° |
| 2026-04-25 20:00 | 36.69595 | -77.87477 | 32824 ft | 495 kts | 40° |
| 2026-04-25 20:00 | 36.74587 | -77.81540 | 32817 ft | 495 kts | 40° |
| 2026-04-25 20:01 | 36.82046 | -77.72662 | 32829 ft | 495 kts | 40° |
| 2026-04-25 20:01 | 36.87037 | -77.66727 | 32823 ft | 495 kts | 40° |
| 2026-04-25 20:02 | 36.92022 | -77.60784 | 32836 ft | 495 kts | 40° |
| 2026-04-25 20:02 | 36.97007 | -77.54826 | 32836 ft | 495 kts | 40° |
| 2026-04-25 20:03 | 37.01954 | -77.48902 | 32850 ft | 495 kts | 40° |
| 2026-04-25 20:03 | 37.06933 | -77.42936 | 32850 ft | 494 kts | 39° |
| 2026-04-25 20:04 | 37.12519 | -77.38076 | 32862 ft | 484 kts | 22° |
| 2026-04-25 20:04 | 37.18724 | -77.35154 | 32857 ft | 478 kts | 13° |
| 2026-04-25 20:05 | 37.25065 | -77.32526 | 32858 ft | 479 kts | 13° |
| 2026-04-25 20:05 | 37.31358 | -77.29854 | 32862 ft | 480 kts | 14° |
| 2026-04-25 20:06 | 37.37678 | -77.27116 | 32857 ft | 480 kts | 14° |
| 2026-04-25 20:06 | 37.44013 | -77.24355 | 32857 ft | 480 kts | 14° |
| 2026-04-25 20:07 | 37.50339 | -77.21596 | 32855 ft | 481 kts | 14° |
| 2026-04-25 20:07 | 37.56624 | -77.18852 | 32855 ft | 481 kts | 14° |
| 2026-04-25 20:08 | 37.62964 | -77.16079 | 32865 ft | 481 kts | 14° |
| 2026-04-25 20:08 | 37.69304 | -77.13253 | 32869 ft | 484 kts | 17° |
| 2026-04-25 20:09 | 37.75334 | -77.09333 | 32896 ft | 489 kts | 24° |
| 2026-04-25 20:09 | 37.81229 | -77.05133 | 32900 ft | 489 kts | 25° |
| 2026-04-25 20:10 | 37.87183 | -77.00932 | 32898 ft | 489 kts | 24° |
| 2026-04-25 20:10 | 37.93158 | -76.96770 | 32901 ft | 489 kts | 24° |
| 2026-04-25 20:11 | 37.99133 | -76.92617 | 32902 ft | 490 kts | 24° |
| 2026-04-25 20:11 | 38.05080 | -76.88474 | 32906 ft | 490 kts | 24° |
| 2026-04-25 20:12 | 38.11060 | -76.84295 | 32908 ft | 491 kts | 24° |
| 2026-04-25 20:12 | 38.16034 | -76.80812 | 32914 ft | 491 kts | 24° |
| 2026-04-25 20:13 | 38.23044 | -76.75893 | 32917 ft | 492 kts | 25° |
| 2026-04-25 20:13 | 38.28572 | -76.70744 | 32936 ft | 499 kts | 37° |
| 2026-04-25 20:14 | 38.33814 | -76.64879 | 32924 ft | 500 kts | 37° |
| 2026-04-25 20:14 | 38.39086 | -76.59079 | 32932 ft | 499 kts | 36° |
| 2026-04-25 20:15 | 38.44349 | -76.53379 | 32935 ft | 499 kts | 36° |
| 2026-04-25 20:15 | 38.49671 | -76.47679 | 32931 ft | 499 kts | 36° |
| 2026-04-25 20:16 | 38.54985 | -76.41984 | 32943 ft | 498 kts | 36° |
| 2026-04-25 20:16 | 38.60262 | -76.36306 | 32947 ft | 498 kts | 36° |
| 2026-04-25 20:17 | 38.65558 | -76.30589 | 32966 ft | 498 kts | 36° |
| 2026-04-25 20:17 | 38.70845 | -76.24870 | 32965 ft | 497 kts | 36° |
| 2026-04-25 20:18 | 38.76125 | -76.19148 | 32961 ft | 497 kts | 36° |
| 2026-04-25 20:18 | 38.81410 | -76.13408 | 32964 ft | 497 kts | 36° |
| 2026-04-25 20:19 | 38.86653 | -76.07704 | 32965 ft | 497 kts | 36° |
| 2026-04-25 20:19 | 38.92034 | -76.02157 | 32955 ft | 496 kts | 35° |
| 2026-04-25 20:20 | 38.97209 | -75.96251 | 32972 ft | 497 kts | 37° |
| 2026-04-25 20:20 | 39.02298 | -75.90235 | 32984 ft | 497 kts | 37° |
| 2026-04-25 20:21 | 39.07320 | -75.84213 | 33000 ft | 497 kts | 37° |
| 2026-04-25 20:21 | 39.12364 | -75.78084 | 33003 ft | 498 kts | 39° |
| 2026-04-25 20:22 | 39.15740 | -75.73980 | 32999 ft | 499 kts | 39° |
| 2026-04-25 20:22 | 39.22543 | -75.65886 | 32994 ft | 500 kts | 38° |
| 2026-04-25 20:23 | 39.27649 | -75.59776 | 32999 ft | 501 kts | 39° |
| 2026-04-25 20:23 | 39.32722 | -75.53673 | 32995 ft | 501 kts | 39° |
| 2026-04-25 20:24 | 39.37824 | -75.47506 | 33000 ft | 502 kts | 39° |
| 2026-04-25 20:24 | 39.42919 | -75.41327 | 33023 ft | 502 kts | 39° |
| 2026-04-25 20:25 | 39.48025 | -75.35122 | 33028 ft | 503 kts | 39° |
| 2026-04-25 20:25 | 39.53099 | -75.28943 | 33029 ft | 503 kts | 39° |
| 2026-04-25 20:26 | 39.58197 | -75.22721 | 33026 ft | 503 kts | 39° |
| 2026-04-25 20:26 | 39.63295 | -75.16483 | 33038 ft | 503 kts | 39° |
| 2026-04-25 20:27 | 39.68357 | -75.10287 | 33041 ft | 503 kts | 38° |
| 2026-04-25 20:27 | 39.73645 | -75.04384 | 33042 ft | 500 kts | 35° |
| 2026-04-25 20:28 | 39.78973 | -74.98535 | 33056 ft | 501 kts | 36° |
| 2026-04-25 20:28 | 39.84241 | -74.92553 | 33057 ft | 502 kts | 37° |
| 2026-04-25 20:29 | 39.89462 | -74.86608 | 33060 ft | 501 kts | 36° |
| 2026-04-25 20:29 | 39.95044 | -74.81213 | 33063 ft | 496 kts | 28° |
| 2026-04-25 20:30 | 40.00735 | -74.76173 | 33059 ft | 497 kts | 30° |
| 2026-04-25 20:30 | 40.06033 | -74.70277 | 33076 ft | 506 kts | 43° |
| 2026-04-25 20:31 | 40.10697 | -74.63368 | 33070 ft | 507 kts | 45° |
| 2026-04-25 20:31 | 40.15388 | -74.56456 | 33066 ft | 507 kts | 44° |
| 2026-04-25 20:32 | 40.20102 | -74.49694 | 33079 ft | 505 kts | 40° |
| 2026-04-25 20:32 | 40.25405 | -74.43751 | 33079 ft | 499 kts | 33° |
| 2026-04-25 20:33 | 40.30858 | -74.38091 | 33077 ft | 499 kts | 33° |
| 2026-04-25 20:33 | 40.34448 | -74.34312 | 33085 ft | 499 kts | 33° |
| 2026-04-25 20:34 | 40.41624 | -74.26628 | 33094 ft | 499 kts | 34° |
| 2026-04-25 20:34 | 40.46999 | -74.20841 | 33106 ft | 498 kts | 33° |
| 2026-04-25 20:35 | 40.52255 | -74.14982 | 33098 ft | 503 kts | 41° |
| 2026-04-25 20:35 | 40.56281 | -74.07360 | 33119 ft | 514 kts | 62° |
| 2026-04-25 20:36 | 40.58534 | -73.98396 | 33121 ft | 517 kts | 72° |
| 2026-04-25 20:36 | 40.60495 | -73.89285 | 33127 ft | 516 kts | 71° |
| 2026-04-25 20:37 | 40.62570 | -73.80244 | 33127 ft | 515 kts | 70° |
| 2026-04-25 20:37 | 40.65056 | -73.71513 | 33137 ft | 510 kts | 62° |
| 2026-04-25 20:38 | 40.68040 | -73.63049 | 33127 ft | 509 kts | 61° |
| 2026-04-25 20:38 | 40.71012 | -73.54572 | 33129 ft | 509 kts | 62° |
| 2026-04-25 20:39 | 40.73914 | -73.46053 | 33132 ft | 509 kts | 62° |
| 2026-04-25 20:39 | 40.75846 | -73.40333 | 33131 ft | 509 kts | 62° |
| 2026-04-25 20:40 | 40.80099 | -73.29334 | 33117 ft | 497 kts | 43° |
| 2026-04-25 20:40 | 40.85125 | -73.23262 | 33138 ft | 488 kts | 34° |
| 2026-04-25 20:41 | 40.90268 | -73.17489 | 33128 ft | 489 kts | 34° |
| 2026-04-25 20:41 | 40.92846 | -73.14536 | 32852 ft | 494 kts | 34° |
| 2026-04-25 20:41 | 40.95441 | -73.11526 | 32147 ft | 496 kts | 35° |
| 2026-04-25 20:42 | 40.98034 | -73.08486 | 31414 ft | 495 kts | 35° |
| 2026-04-25 20:42 | 41.00617 | -73.05449 | 30650 ft | 496 kts | 35° |
| 2026-04-25 20:42 | 41.03202 | -73.02412 | 29766 ft | 498 kts | 35° |
| 2026-04-25 20:42 | 41.05807 | -72.99357 | 28816 ft | 500 kts | 36° |
| 2026-04-25 20:43 | 41.08374 | -72.96346 | 27861 ft | 500 kts | 36° |
| 2026-04-25 20:43 | 41.11002 | -72.93268 | 26767 ft | 504 kts | 36° |
| 2026-04-25 20:43 | 41.13634 | -72.90181 | 25778 ft | 505 kts | 36° |
| 2026-04-25 20:43 | 41.16250 | -72.87101 | 25024 ft | 500 kts | 36° |
| 2026-04-25 20:44 | 41.18838 | -72.84049 | 24399 ft | 493 kts | 36° |
| 2026-04-25 20:44 | 41.21395 | -72.81033 | 23657 ft | 489 kts | 36° |
| 2026-04-25 20:44 | 41.23924 | -72.78048 | 22811 ft | 484 kts | 36° |
| 2026-04-25 20:44 | 41.26504 | -72.75344 | 22166 ft | 469 kts | 25° |
| 2026-04-25 20:45 | 41.29450 | -72.73726 | 21402 ft | 451 kts | 7° |
| 2026-04-25 20:45 | 41.32504 | -72.73290 | 20733 ft | 434 kts | 353° |
| 2026-04-25 20:45 | 41.35466 | -72.73720 | 20024 ft | 424 kts | 343° |
| 2026-04-25 20:45 | 41.38239 | -72.74893 | 19305 ft | 413 kts | 331° |
| 2026-04-25 20:46 | 41.39905 | -72.76082 | 18871 ft | 407 kts | 324° |
| 2026-04-25 20:46 | 41.42296 | -72.78080 | 18142 ft | 404 kts | 323° |
| 2026-04-25 20:46 | 41.44657 | -72.80112 | 17403 ft | 401 kts | 323° |
| 2026-04-25 20:46 | 41.46993 | -72.82121 | 16663 ft | 398 kts | 323° |
| 2026-04-25 20:47 | 41.50076 | -72.84743 | 15761 ft | 394 kts | 323° |
| 2026-04-25 20:47 | 41.51610 | -72.86036 | 15297 ft | 392 kts | 324° |
| 2026-04-25 20:47 | 41.53918 | -72.87972 | 14620 ft | 390 kts | 324° |
| 2026-04-25 20:47 | 41.56205 | -72.89886 | 13990 ft | 387 kts | 324° |
| 2026-04-25 20:48 | 41.58480 | -72.91789 | 13289 ft | 385 kts | 324° |
| 2026-04-25 20:48 | 41.60740 | -72.93681 | 12643 ft | 382 kts | 324° |
| 2026-04-25 20:48 | 41.62982 | -72.95562 | 11994 ft | 379 kts | 325° |
| 2026-04-25 20:48 | 41.65220 | -72.97427 | 11383 ft | 376 kts | 327° |
| 2026-04-25 20:49 | 41.67654 | -72.98594 | 11169 ft | 369 kts | 348° |
| 2026-04-25 20:49 | 41.70187 | -72.98614 | 11013 ft | 362 kts | 7° |
| 2026-04-25 20:49 | 41.72565 | -72.97645 | 10867 ft | 354 kts | 22° |
| 2026-04-25 20:49 | 41.74611 | -72.95883 | 10702 ft | 348 kts | 39° |
| 2026-04-25 20:50 | 41.76345 | -72.93667 | 10566 ft | 339 kts | 44° |
| 2026-04-25 20:50 | 41.77586 | -72.91077 | 10395 ft | 335 kts | 69° |
| 2026-04-25 20:50 | 41.78121 | -72.88084 | 10296 ft | 327 kts | 79° |
| 2026-04-25 20:50 | 41.78483 | -72.85116 | 10152 ft | 320 kts | 80° |
| 2026-04-25 20:51 | 41.78810 | -72.82201 | 10051 ft | 312 kts | 81° |
| 2026-04-25 20:51 | 41.79161 | -72.79378 | 9997 ft | 302 kts | 71° |
| 2026-04-25 20:51 | 41.80155 | -72.77006 | 9932 ft | 288 kts | 48° |
| 2026-04-25 20:51 | 41.81488 | -72.74945 | 9478 ft | 294 kts | 46° |
| 2026-04-25 20:52 | 41.82851 | -72.72900 | 9164 ft | 295 kts | 46° |
| 2026-04-25 20:52 | 41.83763 | -72.71542 | 8943 ft | 296 kts | 46° |
| 2026-04-25 20:52 | 41.85612 | -72.68802 | 8534 ft | 295 kts | 45° |
| 2026-04-25 20:52 | 41.86995 | -72.66762 | 8253 ft | 294 kts | 46° |
| 2026-04-25 20:53 | 41.88371 | -72.64740 | 7971 ft | 293 kts | 45° |
| 2026-04-25 20:53 | 41.89745 | -72.62725 | 7687 ft | 292 kts | 45° |
| 2026-04-25 20:53 | 41.91115 | -72.60723 | 7420 ft | 290 kts | 45° |
| 2026-04-25 20:53 | 41.92482 | -72.58730 | 7142 ft | 289 kts | 45° |
| 2026-04-25 20:54 | 41.93841 | -72.56755 | 6882 ft | 287 kts | 46° |
| 2026-04-25 20:54 | 41.95190 | -72.54801 | 6614 ft | 282 kts | 45° |
| 2026-04-25 20:54 | 41.96516 | -72.52887 | 6333 ft | 277 kts | 46° |
| 2026-04-25 20:54 | 41.97822 | -72.51010 | 6108 ft | 271 kts | 45° |
| 2026-04-25 20:55 | 41.99088 | -72.49207 | 5872 ft | 266 kts | 46° |
| 2026-04-25 20:55 | 42.00353 | -72.47422 | 5684 ft | 259 kts | 46° |
| 2026-04-25 20:55 | 42.01596 | -72.45715 | 5542 ft | 252 kts | 44° |
| 2026-04-25 20:55 | 42.02850 | -72.44121 | 5436 ft | 244 kts | 43° |
| 2026-04-25 20:56 | 42.04061 | -72.42612 | 5390 ft | 230 kts | 42° |
| 2026-04-25 20:56 | 42.05407 | -72.41652 | 5260 ft | 216 kts | 6° |
| 2026-04-25 20:56 | 42.06810 | -72.42034 | 5167 ft | 200 kts | 336° |
| 2026-04-25 20:56 | 42.07988 | -72.42904 | 5034 ft | 189 kts | 315° |
| 2026-04-25 20:57 | 42.08574 | -72.44421 | 4737 ft | 185 kts | 286° |
| 2026-04-25 20:57 | 42.08973 | -72.46078 | 4261 ft | 193 kts | 287° |
| 2026-04-25 20:57 | 42.09062 | -72.47947 | 3478 ft | 211 kts | 250° |
| 2026-04-25 20:57 | 42.08251 | -72.49569 | 3147 ft | 205 kts | 227° |
| 2026-04-25 20:58 | 42.07335 | -72.50991 | 2997 ft | 198 kts | 226° |
| 2026-04-25 20:58 | 42.06418 | -72.52280 | 2859 ft | 182 kts | 223° |
| 2026-04-25 20:58 | 42.05553 | -72.53432 | 2713 ft | 169 kts | 222° |
| 2026-04-25 20:58 | 42.04748 | -72.54490 | 2663 ft | 152 kts | 223° |
| 2026-04-25 20:59 | 42.04016 | -72.55453 | 2666 ft | 148 kts | 222° |
| 2026-04-25 20:59 | 42.03263 | -72.56416 | 2541 ft | 149 kts | 220° |
| 2026-04-25 20:59 | 42.02516 | -72.57397 | 2330 ft | 151 kts | 224° |
| 2026-04-25 20:59 | 42.01789 | -72.58399 | 2083 ft | 146 kts | 222° |
| 2026-04-25 21:00 | 42.01065 | -72.59323 | 1903 ft | 142 kts | 223° |
| 2026-04-25 21:00 | 42.00596 | -72.59942 | 1749 ft | 142 kts | 222° |
| 2026-04-25 21:00 | 41.98968 | -72.62072 | 1310 ft | 140 kts | 222° |
| 2026-04-25 21:01 | 41.98276 | -72.62988 | 1110 ft | 140 kts | 223° |
| 2026-04-25 21:01 | 41.97568 | -72.63922 | 919 ft | 142 kts | 222° |
| 2026-04-25 21:01 | 41.96868 | -72.64853 | 686 ft | 140 kts | 224° |
| 2026-04-25 21:01 | 41.96185 | -72.65740 | 500 ft | 134 kts | 222° |
| 2026-04-25 21:02 | 41.95532 | -72.66612 | 342 ft | 132 kts | 223° |
| 2026-04-25 21:02 | 41.94877 | -72.67467 | 180 ft | 128 kts | 223° |
| 2026-04-25 21:02 | 41.94303 | -72.68214 | 179 ft | 99 kts | 225° |
| 2026-04-25 21:02 | 41.93896 | -72.68747 | 177 ft | 65 kts | 223° |
| 2026-04-25 21:03 | 41.93649 | -72.69026 | 182 ft | 31 kts | 192° |
| 2026-04-25 21:03 | 41.93562 | -72.68981 | 182 ft | 0 kts | 133° |
| 2026-04-25 21:03 | 41.93550 | -72.68950 | 182 ft | 11 kts | 106° |
| 2026-04-25 21:03 | 41.93581 | -72.68836 | 182 ft | 14 kts | 49° |
| 2026-04-25 21:04 | 41.93624 | -72.68723 | 179 ft | 14 kts | 94° |
| 2026-04-25 21:04 | 41.93570 | -72.68615 | 177 ft | 14 kts | 136° |
| 2026-04-25 21:04 | 41.93503 | -72.68524 | 177 ft | 14 kts | 134° |
| 2026-04-25 21:04 | 41.93432 | -72.68427 | 175 ft | 15 kts | 136° |
| 2026-04-25 21:05 | 41.93360 | -72.68329 | 176 ft | 14 kts | 134° |
| 2026-04-25 21:05 | 41.93292 | -72.68233 | 177 ft | 14 kts | 133° |
| 2026-04-25 21:05 | 41.93221 | -72.68156 | 178 ft | 13 kts | 164° |
| 2026-04-25 21:05 | 41.93146 | -72.68208 | 180 ft | 13 kts | 226° |
| 2026-04-25 21:06 | 41.93081 | -72.68289 | 180 ft | 12 kts | 220° |
| 2026-04-25 21:06 | 41.93044 | -72.68384 | 180 ft | 12 kts | 285° |
| 2026-04-25 21:06 | 41.93068 | -72.68459 | 181 ft | 0 kts | 297° |